Time,TemperatureF,DewpointF,PressureIn,WindDirection,WindDirectionDegrees,WindSpeedMPH,WindSpeedGustMPH,Humidity,HourlyPrecipIn,Conditions,Clouds,dailyrainin,SoftwareType,DateUTC
2013-01-01 00:02:00,23.0,20.0,30.12,NNW,346,3.0,7.0,87,0.00,,,0.03,,2013-01-01 06:02:00,
2013-01-01 00:12:00,23.0,20.0,30.12,NNW,346,3.0,7.0,87,0.00,,,0.03,,2013-01-01 06:12:00,
2013-01-01 00:22:00,23.0,20.0,30.11,North,355,3.0,6.0,87,0.00,,,0.03,,2013-01-01 06:22:00,
2013-01-01 00:32:00,23.0,20.0,30.11,NNW,333,4.0,6.0,88,0.00,,,0.03,,2013-01-01 06:32:00,
2013-01-01 00:42:00,23.0,20.0,30.11,NNW,333,4.0,6.0,88,0.00,,,0.03,,2013-01-01 06:42:00,
2013-01-01 00:52:00,23.0,20.0,30.11,NNE,12,2.0,6.0,88,0.00,,,0.03,,2013-01-01 06:52:00,
2013-01-01 01:02:00,23.0,20.0,30.11,NNW,348,2.0,5.0,88,0.00,,,0.03,,2013-01-01 07:02:00,
2013-01-01 01:12:00,23.0,20.0,30.12,NNW,330,3.0,5.0,88,0.00,,,0.03,,2013-01-01 07:12:00,
2013-01-01 01:22:00,23.0,20.0,30.12,NNW,330,3.0,5.0,88,0.00,,,0.03,,2013-01-01 07:22:00,
2013-01-01 01:32:00,23.0,20.0,30.12,North,355,4.0,7.0,88,0.00,,,0.03,,2013-01-01 07:32:00,
2013-01-01 01:42:00,23.0,20.0,30.12,North,355,4.0,7.0,88,0.00,,,0.03,,2013-01-01 07:42:00,
2013-01-01 01:52:00,23.0,20.0,30.12,North,351,3.0,6.0,89,0.00,,,0.03,,2013-01-01 07:52:00,
2013-01-01 02:02:00,23.0,20.0,30.13,NE,34,3.0,5.0,89,0.00,,,0.03,,2013-01-01 08:02:00,
2013-01-01 02:12:00,23.0,20.0,30.13,NE,34,3.0,5.0,89,0.00,,,0.03,,2013-01-01 08:12:00,
2013-01-01 02:22:00,23.0,20.0,30.12,NW,313,2.0,5.0,89,0.00,,,0.03,,2013-01-01 08:22:00,
2013-01-01 02:32:00,23.0,20.0,30.13,North,360,2.0,6.0,89,0.00,,,0.03,,2013-01-01 08:32:00,
2013-01-01 02:42:00,23.0,20.0,30.13,North,360,2.0,6.0,89,0.00,,,0.03,,2013-01-01 08:42:00,
2013-01-01 02:53:00,23.0,20.0,30.13,North,5,5.0,7.0,88,0.00,,,0.03,,2013-01-01 08:53:00,
2013-01-01 03:02:00,23.0,19.0,30.13,NNE,19,3.0,7.0,85,0.00,,,0.03,,2013-01-01 09:02:00,
2013-01-01 03:12:00,23.0,19.0,30.13,NNE,19,3.0,7.0,85,0.00,,,0.03,,2013-01-01 09:12:00,
2013-01-01 03:22:00,23.0,19.0,30.14,North,5,3.0,6.0,85,0.00,,,0.03,,2013-01-01 09:22:00,
2013-01-01 03:32:00,23.0,19.0,30.14,NNE,22,3.0,6.0,84,0.00,,,0.03,,2013-01-01 09:32:00,
2013-01-01 03:42:00,23.0,19.0,30.14,NNE,22,3.0,6.0,84,0.00,,,0.03,,2013-01-01 09:42:00,
2013-01-01 03:52:00,22.0,17.0,30.14,North,5,4.0,8.0,82,0.00,,,0.03,,2013-01-01 09:52:00,
2013-01-01 04:02:00,22.0,18.0,30.14,NNE,17,3.0,7.0,83,0.00,,,0.03,,2013-01-01 10:02:00,
2013-01-01 04:12:00,22.0,18.0,30.14,NNE,17,3.0,7.0,83,0.00,,,0.03,,2013-01-01 10:12:00,
2013-01-01 04:22:00,22.0,18.0,30.14,North,355,3.0,6.0,83,0.00,,,0.03,,2013-01-01 10:22:00,
2013-01-01 04:33:00,22.0,18.0,30.14,NNE,15,3.0,7.0,84,0.00,,,0.03,,2013-01-01 10:33:00,
2013-01-01 04:42:00,22.0,18.0,30.14,NNE,15,3.0,7.0,84,0.00,,,0.03,,2013-01-01 10:42:00,
2013-01-01 04:53:00,22.0,18.0,30.15,North,349,2.0,5.0,83,0.00,,,0.03,,2013-01-01 10:53:00,
2013-01-01 05:02:00,22.0,17.0,30.15,North,355,2.0,4.0,82,0.00,,,0.03,,2013-01-01 11:02:00,
2013-01-01 05:12:00,22.0,17.0,30.15,North,355,2.0,4.0,82,0.00,,,0.03,,2013-01-01 11:12:00,
2013-01-01 05:22:00,22.0,18.0,30.15,NNW,334,3.0,6.0,83,0.00,,,0.03,,2013-01-01 11:22:00,
2013-01-01 05:32:00,21.0,16.0,30.16,NNW,336,5.0,8.0,82,0.00,,,0.03,,2013-01-01 11:32:00,
2013-01-01 05:42:00,21.0,16.0,30.16,NNW,336,5.0,8.0,82,0.00,,,0.03,,2013-01-01 11:42:00,
2013-01-01 05:53:00,21.0,17.0,30.16,North,355,4.0,9.0,83,0.00,,,0.03,,2013-01-01 11:53:00,
2013-01-01 06:02:00,21.0,17.0,30.16,North,5,3.0,6.0,83,0.00,,,0.03,,2013-01-01 12:02:00,
2013-01-01 06:12:00,21.0,17.0,30.16,North,5,3.0,6.0,83,0.00,,,0.03,,2013-01-01 12:12:00,
2013-01-01 06:22:00,21.0,16.0,30.17,NE,36,4.0,7.0,82,0.00,,,0.03,,2013-01-01 12:22:00,
2013-01-01 06:32:00,20.0,15.0,30.17,NNE,17,4.0,8.0,82,0.00,,,0.03,,2013-01-01 12:32:00,
2013-01-01 06:42:00,20.0,15.0,30.17,NNE,17,4.0,8.0,82,0.00,,,0.03,,2013-01-01 12:42:00,
2013-01-01 06:53:00,21.0,16.0,30.18,NNW,347,3.0,6.0,81,0.00,,,0.03,,2013-01-01 12:53:00,
2013-01-01 07:02:00,20.0,15.0,30.18,North,355,2.0,6.0,80,0.00,,,0.03,,2013-01-01 13:02:00,
2013-01-01 07:12:00,20.0,15.0,30.18,North,355,2.0,6.0,80,0.00,,,0.03,,2013-01-01 13:12:00,
2013-01-01 07:22:00,20.0,15.0,30.19,NNE,18,1.0,4.0,81,0.00,,,0.03,,2013-01-01 13:22:00,
2013-01-01 07:32:00,20.0,15.0,30.19,North,355,0.0,4.0,81,0.00,,,0.03,,2013-01-01 13:32:00,
2013-01-01 07:42:00,20.0,15.0,30.19,North,355,0.0,4.0,81,0.00,,,0.03,,2013-01-01 13:42:00,
2013-01-01 07:53:00,20.0,15.0,30.19,NNW,347,2.0,5.0,81,0.00,,,0.03,,2013-01-01 13:53:00,
2013-01-01 08:02:00,20.0,15.0,30.19,NNW,343,2.0,4.0,81,0.00,,,0.03,,2013-01-01 14:02:00,
2013-01-01 08:12:00,20.0,15.0,30.19,NNW,343,2.0,4.0,81,0.00,,,0.03,,2013-01-01 14:12:00,
2013-01-01 08:22:00,19.0,14.0,30.19,North,5,1.0,6.0,80,0.00,,,0.03,,2013-01-01 14:22:00,
2013-01-01 08:32:00,19.0,14.0,30.16,NNE,21,5.0,8.0,80,0.00,,,0.03,,2013-01-01 14:32:00,
2013-01-01 08:42:00,19.0,14.0,30.16,NNE,21,5.0,8.0,80,0.00,,,0.03,,2013-01-01 14:42:00,
2013-01-01 08:53:00,19.0,14.0,30.15,North,5,5.0,9.0,80,0.00,,,0.03,,2013-01-01 14:53:00,
2013-01-01 09:03:00,19.0,14.0,30.17,North,355,3.0,8.0,79,0.00,,,0.03,,2013-01-01 15:03:00,
2013-01-01 09:12:00,19.0,14.0,30.17,North,355,3.0,8.0,79,0.00,,,0.03,,2013-01-01 15:12:00,
2013-01-01 09:22:00,18.0,12.0,30.20,North,360,2.0,6.0,78,0.00,,,0.03,,2013-01-01 15:22:00,
2013-01-01 09:33:00,18.0,12.0,30.22,North,360,3.0,6.0,77,0.00,,,0.03,,2013-01-01 15:33:00,
2013-01-01 09:42:00,18.0,12.0,30.22,North,360,3.0,6.0,77,0.00,,,0.03,,2013-01-01 15:42:00,
2013-01-01 09:53:00,18.0,12.0,30.23,North,5,3.0,7.0,78,0.00,,,0.03,,2013-01-01 15:53:00,
2013-01-01 10:02:00,19.0,13.0,30.23,North,360,3.0,5.0,77,0.00,,,0.03,,2013-01-01 16:02:00,
2013-01-01 10:12:00,19.0,13.0,30.23,North,360,3.0,5.0,77,0.00,,,0.03,,2013-01-01 16:12:00,
2013-01-01 10:22:00,19.0,13.0,30.22,NNW,334,3.0,7.0,77,0.00,,,0.03,,2013-01-01 16:22:00,
2013-01-01 10:33:00,20.0,14.0,30.24,NW,323,2.0,5.0,77,0.00,,,0.03,,2013-01-01 16:33:00,
2013-01-01 10:42:00,20.0,14.0,30.24,NW,323,2.0,5.0,77,0.00,,,0.03,,2013-01-01 16:42:00,
2013-01-01 10:53:00,20.0,14.0,30.24,North,355,3.0,6.0,77,0.00,,,0.03,,2013-01-01 16:53:00,
2013-01-01 11:02:00,20.0,14.0,30.26,North,355,1.0,7.0,77,0.00,,,0.03,,2013-01-01 17:02:00,
2013-01-01 11:12:00,20.0,14.0,30.26,North,355,1.0,7.0,77,0.00,,,0.03,,2013-01-01 17:12:00,
2013-01-01 11:22:00,20.0,14.0,30.24,North,355,4.0,7.0,76,0.00,,,0.03,,2013-01-01 17:22:00,
2013-01-01 11:33:00,21.0,15.0,30.23,NNW,346,4.0,7.0,76,0.00,,,0.03,,2013-01-01 17:33:00,
2013-01-01 11:43:00,21.0,15.0,30.23,NNW,346,4.0,7.0,76,0.00,,,0.03,,2013-01-01 17:43:00,
2013-01-01 11:53:00,21.0,15.0,30.20,North,355,4.0,8.0,76,0.00,,,0.03,,2013-01-01 17:53:00,
2013-01-01 12:03:00,22.0,15.0,30.21,North,355,4.0,8.0,75,0.00,,,0.03,,2013-01-01 18:03:00,
2013-01-01 12:12:00,22.0,15.0,30.21,North,355,4.0,8.0,75,0.00,,,0.03,,2013-01-01 18:12:00,
2013-01-01 12:22:00,22.0,15.0,30.20,NNW,340,6.0,10.0,74,0.00,,,0.03,,2013-01-01 18:22:00,
2013-01-01 12:33:00,22.0,16.0,30.19,North,360,3.0,8.0,76,0.00,,,0.03,,2013-01-01 18:33:00,
2013-01-01 12:42:00,22.0,16.0,30.19,North,360,3.0,8.0,76,0.00,,,0.03,,2013-01-01 18:42:00,
2013-01-01 12:53:00,22.0,16.0,30.19,North,360,3.0,8.0,76,0.00,,,0.03,,2013-01-01 18:53:00,
2013-01-01 13:02:00,22.0,15.0,30.20,NNE,15,4.0,8.0,75,0.00,,,0.03,,2013-01-01 19:02:00,
2013-01-01 13:12:00,22.0,15.0,30.20,NNE,15,4.0,8.0,75,0.00,,,0.03,,2013-01-01 19:12:00,
2013-01-01 13:22:00,22.0,15.0,30.19,NNW,340,5.0,9.0,74,0.00,,,0.03,,2013-01-01 19:22:00,
2013-01-01 13:33:00,23.0,16.0,30.18,North,360,5.0,9.0,75,0.00,,,0.03,,2013-01-01 19:33:00,
2013-01-01 13:42:00,23.0,16.0,30.18,North,360,5.0,9.0,75,0.00,,,0.03,,2013-01-01 19:42:00,
2013-01-01 13:53:00,23.0,17.0,30.18,North,349,4.0,8.0,76,0.00,,,0.03,,2013-01-01 19:53:00,
2013-01-01 14:02:00,23.0,17.0,30.18,North,349,4.0,8.0,76,0.00,,,0.03,,2013-01-01 20:02:00,
2013-01-01 14:12:00,23.0,17.0,30.18,North,349,4.0,8.0,76,0.00,,,0.03,,2013-01-01 20:12:00,
2013-01-01 14:23:00,24.0,18.0,30.18,NNW,336,3.0,8.0,76,0.00,,,0.01,,2013-01-01 20:23:00,
2013-01-01 14:32:00,24.0,17.0,30.18,NNW,333,3.0,6.0,73,0.00,,,0.01,,2013-01-01 20:32:00,
2013-01-01 14:42:00,24.0,17.0,30.18,NNW,333,3.0,6.0,73,0.00,,,0.01,,2013-01-01 20:42:00,
2013-01-01 14:53:00,24.0,16.0,30.18,North,355,4.0,6.0,72,0.01,,,0.02,,2013-01-01 20:53:00,
2013-01-01 15:03:00,24.0,16.0,30.18,North,350,4.0,7.0,72,0.01,,,0.02,,2013-01-01 21:03:00,
2013-01-01 15:12:00,24.0,16.0,30.18,North,350,4.0,7.0,72,0.01,,,0.02,,2013-01-01 21:12:00,
2013-01-01 15:22:00,24.0,16.0,30.18,NNW,347,2.0,4.0,71,0.01,,,0.02,,2013-01-01 21:22:00,
2013-01-01 15:33:00,24.0,16.0,30.18,NNW,328,3.0,5.0,71,0.01,,,0.02,,2013-01-01 21:33:00,
2013-01-01 15:42:00,24.0,16.0,30.18,NNW,328,3.0,5.0,71,0.01,,,0.02,,2013-01-01 21:42:00,
2013-01-01 15:53:00,23.0,15.0,30.19,North,351,2.0,6.0,71,0.00,,,0.02,,2013-01-01 21:53:00,
2013-01-01 16:02:00,23.0,15.0,30.19,NW,314,1.0,3.0,70,0.00,,,0.02,,2013-01-01 22:02:00,
2013-01-01 16:12:00,23.0,15.0,30.19,NW,314,1.0,3.0,70,0.00,,,0.02,,2013-01-01 22:12:00,
2013-01-01 16:22:00,23.0,15.0,30.19,NW,314,1.0,3.0,70,0.00,,,0.02,,2013-01-01 22:22:00,
2013-01-01 16:33:00,23.0,15.0,30.19,NW,314,1.0,3.0,70,0.00,,,0.02,,2013-01-01 22:33:00,
2013-01-01 16:42:00,23.0,15.0,30.19,NW,314,1.0,3.0,70,0.00,,,0.02,,2013-01-01 22:42:00,
2013-01-01 16:53:00,21.0,13.0,30.18,NNW,330,0.0,2.0,71,0.00,,,0.01,,2013-01-01 22:53:00,
2013-01-01 17:02:00,20.0,12.0,30.18,NNW,330,0.0,0.0,72,0.00,,,0.01,,2013-01-01 23:02:00,
2013-01-01 17:12:00,20.0,12.0,30.18,NNW,330,0.0,0.0,72,0.00,,,0.01,,2013-01-01 23:12:00,
2013-01-01 17:22:00,19.0,12.0,30.18,NNW,330,0.0,0.0,73,0.00,,,0.01,,2013-01-01 23:22:00,
2013-01-01 17:32:00,18.0,11.0,30.19,NNW,330,0.0,0.0,75,0.00,,,0.01,,2013-01-01 23:32:00,
2013-01-01 17:42:00,18.0,11.0,30.19,NNW,330,0.0,0.0,75,0.00,,,0.01,,2013-01-01 23:42:00,
2013-01-01 17:53:00,17.0,11.0,30.20,North,349,0.0,1.0,77,0.00,,,0.01,,2013-01-01 23:53:00,
2013-01-01 18:02:00,17.0,11.0,30.20,North,360,0.0,2.0,77,0.00,,,0.01,,2013-01-02 00:02:00,
2013-01-01 18:12:00,17.0,11.0,30.20,North,360,0.0,2.0,77,0.00,,,0.01,,2013-01-02 00:12:00,
2013-01-01 18:22:00,18.0,11.0,30.21,WNW,298,0.0,4.0,73,0.00,,,0.01,,2013-01-02 00:22:00,
2013-01-01 18:32:00,18.0,10.0,30.22,North,355,1.0,4.0,71,0.00,,,0.01,,2013-01-02 00:32:00,
2013-01-01 18:42:00,18.0,10.0,30.22,North,355,1.0,4.0,71,0.00,,,0.01,,2013-01-02 00:42:00,
2013-01-01 18:53:00,18.0,10.0,30.22,North,355,1.0,4.0,71,0.00,,,0.01,,2013-01-02 00:53:00,
2013-01-01 19:02:00,18.0,10.0,30.22,NNW,330,5.0,7.0,69,0.00,,,0.01,,2013-01-02 01:02:00,
2013-01-01 19:12:00,18.0,10.0,30.22,NNW,330,5.0,7.0,69,0.00,,,0.01,,2013-01-02 01:12:00,
2013-01-01 19:22:00,17.0,9.0,30.22,NW,313,4.0,7.0,70,0.00,,,0.01,,2013-01-02 01:22:00,
2013-01-01 19:32:00,17.0,9.0,30.22,NNW,347,4.0,7.0,71,0.00,,,0.01,,2013-01-02 01:32:00,
2013-01-01 19:42:00,17.0,9.0,30.22,NNW,347,4.0,7.0,71,0.00,,,0.01,,2013-01-02 01:42:00,
2013-01-01 19:52:00,16.0,8.0,30.22,North,349,3.0,4.0,71,0.00,,,0.01,,2013-01-02 01:52:00,
2013-01-01 20:02:00,16.0,9.0,30.22,North,355,2.0,6.0,72,0.00,,,0.01,,2013-01-02 02:02:00,
2013-01-01 20:12:00,16.0,9.0,30.22,North,355,2.0,6.0,72,0.00,,,0.01,,2013-01-02 02:12:00,
2013-01-01 20:22:00,15.0,8.0,30.22,NNW,348,2.0,5.0,73,0.00,,,0.01,,2013-01-02 02:22:00,
2013-01-01 20:32:00,15.0,8.0,30.22,NNW,347,0.0,3.0,73,0.00,,,0.01,,2013-01-02 02:32:00,
2013-01-01 20:42:00,15.0,8.0,30.22,NNW,347,0.0,3.0,73,0.00,,,0.01,,2013-01-02 02:42:00,
2013-01-01 20:53:00,14.0,7.0,30.22,NNW,336,1.0,3.0,74,0.00,,,0.01,,2013-01-02 02:53:00,
2013-01-01 21:02:00,14.0,8.0,30.23,NNW,347,0.0,3.0,75,0.00,,,0.01,,2013-01-02 03:02:00,
2013-01-01 21:12:00,14.0,8.0,30.23,NNW,347,0.0,3.0,75,0.00,,,0.01,,2013-01-02 03:12:00,
2013-01-01 21:22:00,13.0,7.0,30.23,NNW,347,0.0,1.0,77,0.00,,,0.01,,2013-01-02 03:22:00,
2013-01-01 21:32:00,13.0,8.0,30.22,NNW,347,0.0,1.0,79,0.00,,,0.01,,2013-01-02 03:32:00,
2013-01-01 21:42:00,13.0,8.0,30.22,NNW,347,0.0,1.0,79,0.00,,,0.01,,2013-01-02 03:42:00,
2013-01-01 21:53:00,12.0,6.0,30.22,NNW,347,0.0,1.0,77,0.00,,,0.01,,2013-01-02 03:53:00,
2013-01-01 22:02:00,12.0,6.0,30.22,NNW,347,0.0,1.0,77,0.00,,,0.01,,2013-01-02 04:02:00,
2013-01-01 22:12:00,12.0,6.0,30.22,NNW,347,0.0,1.0,77,0.00,,,0.01,,2013-01-02 04:12:00,
2013-01-01 22:22:00,11.0,7.0,30.23,NNW,347,0.0,1.0,82,0.00,,,0.01,,2013-01-02 04:22:00,
2013-01-01 22:32:00,10.0,6.0,30.23,NNW,347,0.0,1.0,82,0.00,,,0.01,,2013-01-02 04:32:00,
2013-01-01 22:42:00,10.0,6.0,30.23,NNW,347,0.0,1.0,82,0.00,,,0.01,,2013-01-02 04:42:00,
2013-01-01 22:52:00,10.0,6.0,30.23,NNW,347,0.0,1.0,82,0.00,,,0.01,,2013-01-02 04:52:00,
2013-01-01 23:03:00,10.0,6.0,30.23,North,355,0.0,3.0,83,0.00,,,0.01,,2013-01-02 05:03:00,
2013-01-01 23:12:00,10.0,6.0,30.23,North,355,0.0,3.0,83,0.00,,,0.01,,2013-01-02 05:12:00,
2013-01-01 23:22:00,10.0,6.0,30.24,North,355,0.0,1.0,83,0.00,,,0.01,,2013-01-02 05:22:00,
2013-01-01 23:33:00,9.0,5.0,30.24,North,355,0.0,1.0,84,0.00,,,0.01,,2013-01-02 05:33:00,
2013-01-01 23:42:00,9.0,5.0,30.24,North,355,0.0,1.0,84,0.00,,,0.01,,2013-01-02 05:42:00,
2013-01-01 23:53:00,9.0,5.0,30.23,North,355,0.0,1.0,84,0.00,,,0.01,,2013-01-02 05:53:00,